createdAt,value
2022-10-16T00:01:45.456Z,17.13
2022-10-16T00:04:14.563Z,17.10
2022-10-16T00:06:41.640Z,16.93
2022-10-16T00:09:13.053Z,16.96
2022-10-16T00:11:41.732Z,16.90
2022-10-16T00:14:13.729Z,16.86
2022-10-16T00:16:41.075Z,16.71
2022-10-16T00:19:07.983Z,16.85
2022-10-16T00:21:35.273Z,16.81
2022-10-16T00:24:06.669Z,16.73
2022-10-16T00:26:35.685Z,16.58
2022-10-16T00:29:08.782Z,16.72
2022-10-16T00:31:36.131Z,16.82
2022-10-16T00:34:03.540Z,16.89
2022-10-16T00:36:33.172Z,16.90
2022-10-16T00:39:03.049Z,16.92
2022-10-16T00:41:31.659Z,16.78
2022-10-16T00:44:01.665Z,16.79
2022-10-16T00:46:44.173Z,16.77
2022-10-16T00:49:22.025Z,16.52
2022-10-16T00:51:51.913Z,16.46
2022-10-16T00:54:31.132Z,16.33
2022-10-16T00:57:05.749Z,16.45
2022-10-16T00:59:38.837Z,16.61
2022-10-16T01:02:14.594Z,16.54
2022-10-16T01:04:48.656Z,16.41
2022-10-16T01:07:55.250Z,16.36
2022-10-16T01:10:35.982Z,16.12
2022-10-16T01:13:28.991Z,16.04
2022-10-16T01:16:26.545Z,16.17
2022-10-16T01:19:04.542Z,16.30
2022-10-16T01:21:40.206Z,16.22
2022-10-16T01:24:28.510Z,16.29
2022-10-16T01:27:26.764Z,16.19
2022-10-16T01:30:06.178Z,16.17
2022-10-16T01:32:44.612Z,16.24
2022-10-16T01:35:48.394Z,16.11
2022-10-16T01:38:29.685Z,16.17
2022-10-16T01:41:07.797Z,16.23
2022-10-16T01:43:59.630Z,16.15
2022-10-16T01:46:27.696Z,16.15
2022-10-16T01:48:56.258Z,16.27
2022-10-16T01:51:24.740Z,16.22
2022-10-16T01:53:58.129Z,16.02
2022-10-16T01:56:29.217Z,16.06
2022-10-16T01:59:05.262Z,15.84
2022-10-16T02:01:36.542Z,15.94
2022-10-16T02:04:16.017Z,15.73
2022-10-16T02:06:45.126Z,15.80
2022-10-16T02:09:12.186Z,15.68
2022-10-16T02:11:41.577Z,15.61
2022-10-16T02:14:08.591Z,15.58
2022-10-16T02:16:45.098Z,15.72
2022-10-16T02:19:16.766Z,15.66
2022-10-16T02:21:59.586Z,15.72
2022-10-16T02:24:41.210Z,15.61
2022-10-16T02:27:38.929Z,15.46
2022-10-16T02:30:18.369Z,15.56
2022-10-16T02:32:49.019Z,15.43
2022-10-16T02:35:20.331Z,15.60
2022-10-16T02:37:52.669Z,15.51
2022-10-16T02:40:22.865Z,15.33
2022-10-16T02:42:54.814Z,15.49
2022-10-16T02:45:25.120Z,15.36
2022-10-16T02:47:54.492Z,15.31
2022-10-16T02:50:21.582Z,15.58
2022-10-16T02:52:51.569Z,15.68
2022-10-16T02:55:18.848Z,15.63
2022-10-16T02:57:45.780Z,15.50
2022-10-16T03:00:16.443Z,15.36
2022-10-16T03:02:45.875Z,15.51
2022-10-16T03:05:15.054Z,15.31
2022-10-16T03:07:41.953Z,15.52
2022-10-16T03:10:12.559Z,15.49
2022-10-16T03:12:39.439Z,15.43
2022-10-16T03:15:09.198Z,15.15
2022-10-16T03:17:39.043Z,15.34
2022-10-16T03:20:06.510Z,15.21
2022-10-16T03:22:36.759Z,15.25
2022-10-16T03:25:04.048Z,15.21
2022-10-16T03:27:32.976Z,15.24
2022-10-16T03:29:59.815Z,15.24
2022-10-16T03:32:31.342Z,15.35
2022-10-16T03:34:58.240Z,15.16
2022-10-16T03:37:25.853Z,15.12
2022-10-16T03:39:55.877Z,15.16
2022-10-16T03:42:27.364Z,15.27
2022-10-16T03:44:56.615Z,15.20
2022-10-16T03:47:24.923Z,15.27
2022-10-16T03:49:52.089Z,15.33
2022-10-16T03:54:55.239Z,15.36
2022-10-16T03:57:22.156Z,15.40
2022-10-16T03:59:49.025Z,15.35
2022-10-16T04:02:17.941Z,15.39
2022-10-16T04:04:46.872Z,15.39
2022-10-16T04:07:13.696Z,15.44
2022-10-16T04:09:40.545Z,15.48
2022-10-16T04:12:10.392Z,15.62
2022-10-16T04:14:37.291Z,15.51
2022-10-16T04:17:04.140Z,15.23
2022-10-16T04:19:33.476Z,15.40
2022-10-16T04:22:00.449Z,15.50
2022-10-16T04:24:29.317Z,15.33
2022-10-16T04:26:56.133Z,15.23
2022-10-16T04:29:23.024Z,15.25
2022-10-16T04:31:54.875Z,15.35
2022-10-16T04:34:21.806Z,15.13
2022-10-16T04:36:51.229Z,15.17
2022-10-16T04:39:20.400Z,15.12
2022-10-16T04:41:47.215Z,15.21
2022-10-16T04:44:14.137Z,15.19
2022-10-16T04:46:40.980Z,14.86
2022-10-16T04:49:07.784Z,14.93
2022-10-16T04:51:37.342Z,15.04
2022-10-16T04:54:06.476Z,14.93
2022-10-16T04:56:33.532Z,15.04
2022-10-16T04:59:00.379Z,14.91
2022-10-16T05:01:29.842Z,14.88
2022-10-16T05:03:59.704Z,14.86
2022-10-16T05:06:26.712Z,15.03
2022-10-16T05:08:56.008Z,15.02
2022-10-16T05:11:22.873Z,14.78
2022-10-16T05:13:55.848Z,14.95
2022-10-16T05:16:22.978Z,14.78
2022-10-16T05:18:52.995Z,14.90
2022-10-16T05:21:20.777Z,14.93
2022-10-16T05:23:47.685Z,14.82
2022-10-16T05:26:14.872Z,14.84
2022-10-16T05:28:44.173Z,14.75
2022-10-16T05:31:14.691Z,14.86
2022-10-16T05:33:41.726Z,15.07
2022-10-16T05:36:11.192Z,15.05
2022-10-16T05:38:39.002Z,15.11
2022-10-16T05:41:06.397Z,15.08
2022-10-16T05:43:36.733Z,15.21
2022-10-16T05:46:07.324Z,15.28
2022-10-16T05:48:34.581Z,15.25
2022-10-16T05:51:36.061Z,14.95
2022-10-16T05:54:04.988Z,14.91
2022-10-16T05:56:32.022Z,15.26
2022-10-16T05:59:01.746Z,15.11
2022-10-16T06:01:28.619Z,15.21
2022-10-16T06:03:55.643Z,15.42
2022-10-16T06:06:30.584Z,15.37
2022-10-16T06:08:58.513Z,15.09
2022-10-16T06:11:32.624Z,15.22
2022-10-16T06:14:08.020Z,15.28
2022-10-16T06:16:39.802Z,15.45
2022-10-16T06:19:09.312Z,15.46
2022-10-16T06:21:36.911Z,15.48
2022-10-16T06:24:08.424Z,15.52
2022-10-16T06:26:38.158Z,15.35
2022-10-16T06:29:06.097Z,15.46
2022-10-16T06:31:34.672Z,15.41
2022-10-16T06:34:07.536Z,15.46
2022-10-16T06:36:34.732Z,15.62
2022-10-16T06:39:05.259Z,15.30
2022-10-16T06:41:40.610Z,15.62
2022-10-16T06:44:11.055Z,15.49
2022-10-16T06:46:38.370Z,15.51
2022-10-16T06:49:08.290Z,15.70
2022-10-16T06:51:40.495Z,15.44
2022-10-16T06:54:16.469Z,15.78
2022-10-16T06:56:43.976Z,15.78
2022-10-16T06:59:11.406Z,15.95
2022-10-16T07:01:38.737Z,15.89
2022-10-16T07:04:08.360Z,15.89
2022-10-16T07:06:41.486Z,15.82
2022-10-16T07:09:14.870Z,15.73
2022-10-16T07:11:42.448Z,15.64
2022-10-16T07:14:22.444Z,15.76
2022-10-16T07:16:52.826Z,16.07
2022-10-16T07:19:31.852Z,17.59
2022-10-16T07:22:04.425Z,18.01
2022-10-16T07:24:32.197Z,18.65
2022-10-16T07:27:04.561Z,19.85
2022-10-16T07:29:40.215Z,20.25
2022-10-16T07:32:12.826Z,19.92
2022-10-16T07:34:40.615Z,19.93
2022-10-16T07:37:07.852Z,19.79
2022-10-16T07:39:35.203Z,19.82
2022-10-16T07:42:07.196Z,20.14
2022-10-16T07:44:34.272Z,21.25
2022-10-16T07:47:06.064Z,21.43
2022-10-16T07:49:36.301Z,23.58
2022-10-16T07:52:05.209Z,23.81
2022-10-16T07:54:32.341Z,24.34
2022-10-16T07:57:09.801Z,26.10
2022-10-16T07:59:42.583Z,25.19
2022-10-16T08:02:09.952Z,24.87
2022-10-16T08:04:40.042Z,25.54
2022-10-16T08:07:14.044Z,25.27
2022-10-16T08:09:43.708Z,25.41
2022-10-16T08:12:12.054Z,24.93
2022-10-16T08:14:47.893Z,24.64
2022-10-16T08:17:17.803Z,26.85
2022-10-16T08:19:55.185Z,24.99
2022-10-16T08:22:24.598Z,23.31
2022-10-16T08:24:51.710Z,22.41
2022-10-16T08:27:18.985Z,21.46
2022-10-16T08:29:52.697Z,20.81
2022-10-16T08:32:27.555Z,21.87
2022-10-16T08:34:54.980Z,22.35
2022-10-16T08:37:31.208Z,23.36
2022-10-16T08:39:58.276Z,24.92
2022-10-16T08:42:45.909Z,26.52
2022-10-16T08:45:36.326Z,25.18
2022-10-16T08:48:27.225Z,24.87
2022-10-16T08:50:55.556Z,23.94
2022-10-16T08:53:34.323Z,24.04
2022-10-16T08:56:04.265Z,23.97
2022-10-16T08:58:36.268Z,24.12
2022-10-16T09:01:18.019Z,25.25
2022-10-16T09:04:46.090Z,26.11
2022-10-16T09:07:29.573Z,27.15
2022-10-16T09:11:17.152Z,27.78
2022-10-16T09:14:13.637Z,29.66
2022-10-16T09:16:54.469Z,27.73
2022-10-16T09:19:42.405Z,27.41
2022-10-16T09:22:19.689Z,28.01
2022-10-16T09:24:46.949Z,27.36
2022-10-16T09:27:18.472Z,29.26
2022-10-16T09:29:50.185Z,28.86
2022-10-16T09:32:22.335Z,29.20
2022-10-16T09:34:57.535Z,28.41
2022-10-16T09:37:38.557Z,27.94
2022-10-16T09:40:07.738Z,29.29
2022-10-16T09:42:38.131Z,30.09
2022-10-16T09:45:06.501Z,32.72
2022-10-16T09:47:41.348Z,30.57
2022-10-16T09:50:31.148Z,30.66
2022-10-16T09:53:15.701Z,29.84
2022-10-16T09:55:56.134Z,28.27
2022-10-16T09:58:24.777Z,28.61
2022-10-16T10:00:55.807Z,29.60
2022-10-16T10:03:41.200Z,30.18
2022-10-16T10:06:26.787Z,30.72
2022-10-16T10:09:05.897Z,31.76
2022-10-16T10:11:43.931Z,32.51
2022-10-16T10:14:24.987Z,33.56
2022-10-16T10:17:03.509Z,33.28
2022-10-16T10:19:38.390Z,31.55
2022-10-16T10:22:59.133Z,30.71
2022-10-16T10:26:02.639Z,32.12
2022-10-16T10:28:51.330Z,33.04
2022-10-16T10:31:24.654Z,33.95
2022-10-16T10:34:25.215Z,32.24
2022-10-16T10:37:20.320Z,32.29
2022-10-16T10:40:33.679Z,33.20
2022-10-16T10:43:49.177Z,32.00
2022-10-16T10:47:03.980Z,32.86
2022-10-16T10:50:01.789Z,30.25
2022-10-16T10:53:18.900Z,30.14
2022-10-16T10:56:26.671Z,31.91
2022-10-16T10:59:28.583Z,32.98
2022-10-16T11:02:02.045Z,32.52
2022-10-16T11:04:46.250Z,28.11
2022-10-16T11:07:26.572Z,29.80
2022-10-16T11:10:16.874Z,33.13
2022-10-16T11:12:54.804Z,34.45
2022-10-16T11:15:35.674Z,34.75
2022-10-16T11:18:27.573Z,35.93
2022-10-16T11:21:17.446Z,32.68
2022-10-16T11:24:04.286Z,31.44
2022-10-16T11:26:41.115Z,29.46
2022-10-16T11:29:19.440Z,29.98
2022-10-16T11:32:01.125Z,28.89
2022-10-16T11:34:49.640Z,28.09
2022-10-16T11:37:23.071Z,28.41
2022-10-16T11:39:55.589Z,27.90
2022-10-16T11:42:49.866Z,29.86
2022-10-16T11:45:28.682Z,30.74
2022-10-16T11:48:24.605Z,30.01
2022-10-16T11:51:06.645Z,28.72
2022-10-16T11:54:02.687Z,29.27
2022-10-16T11:56:34.579Z,29.62
2022-10-16T11:59:18.659Z,29.78
2022-10-16T12:02:09.651Z,31.12
2022-10-16T12:05:16.363Z,32.33
2022-10-16T12:07:59.102Z,30.05
2022-10-16T12:10:32.660Z,30.20
2022-10-16T12:13:03.003Z,28.88
2022-10-16T12:18:27.457Z,27.98
2022-10-16T12:21:06.990Z,30.46
2022-10-16T12:23:39.716Z,31.70
2022-10-16T12:26:07.121Z,31.65
2022-10-16T12:28:35.180Z,29.85
2022-10-16T12:31:09.430Z,32.02
2022-10-16T12:33:57.983Z,31.17
2022-10-16T12:36:34.379Z,30.24
2022-10-16T12:39:04.207Z,30.03
2022-10-16T12:41:40.899Z,26.25
2022-10-16T12:44:33.681Z,25.33
2022-10-16T12:47:00.942Z,27.18
2022-10-16T12:49:42.119Z,28.43
2022-10-16T12:52:36.206Z,29.28
2022-10-16T12:55:03.471Z,30.77
2022-10-16T12:57:58.678Z,30.58
2022-10-16T13:00:37.231Z,32.12
2022-10-16T13:03:16.273Z,33.35
2022-10-16T13:06:07.899Z,32.44
2022-10-16T13:09:03.197Z,32.71
2022-10-16T13:12:11.348Z,32.82
2022-10-16T13:15:03.100Z,29.71
2022-10-16T13:18:11.247Z,27.83
2022-10-16T13:21:17.454Z,27.20
2022-10-16T13:24:09.246Z,29.04
2022-10-16T13:27:01.924Z,29.57
2022-10-16T13:29:35.142Z,31.23
2022-10-16T13:32:15.624Z,32.12
2022-10-16T13:34:50.456Z,32.00
2022-10-16T13:37:26.276Z,29.82
2022-10-16T13:40:18.438Z,27.19
2022-10-16T13:42:45.365Z,27.61
2022-10-16T13:45:22.039Z,26.24
2022-10-16T13:47:48.995Z,26.23
2022-10-16T13:50:24.710Z,27.64
2022-10-16T13:53:07.386Z,29.63
2022-10-16T13:55:34.784Z,29.75
2022-10-16T13:58:15.767Z,31.11
2022-10-16T14:01:02.051Z,31.47
2022-10-16T14:03:31.196Z,31.09
2022-10-16T14:06:03.023Z,30.33
2022-10-16T14:08:33.131Z,30.21
2022-10-16T14:11:03.483Z,29.60
2022-10-16T14:13:48.010Z,28.81
2022-10-16T14:16:22.052Z,28.68
2022-10-16T14:19:01.069Z,28.45
2022-10-16T14:21:30.838Z,28.94
2022-10-16T14:24:02.697Z,28.50
2022-10-16T14:26:48.196Z,28.54
2022-10-16T14:29:21.741Z,28.47
2022-10-16T14:32:03.732Z,29.04
2022-10-16T14:34:41.415Z,28.64
2022-10-16T14:37:33.430Z,27.36
2022-10-16T14:40:02.597Z,28.33
2022-10-16T14:42:29.596Z,28.58
2022-10-16T14:44:59.189Z,29.24
2022-10-16T14:47:27.926Z,30.12
2022-10-16T14:49:59.974Z,30.21
2022-10-16T14:52:26.952Z,28.88
2022-10-16T14:54:57.394Z,28.63
2022-10-16T14:57:36.768Z,28.95
2022-10-16T15:00:05.035Z,28.40
2022-10-16T15:02:39.708Z,27.97
2022-10-16T15:05:25.613Z,27.48
2022-10-16T15:07:56.073Z,27.35
2022-10-16T15:10:26.381Z,28.07
2022-10-16T15:12:53.583Z,26.55
2022-10-16T15:15:41.441Z,25.89
2022-10-16T15:18:08.482Z,25.41
2022-10-16T15:20:39.659Z,26.10
2022-10-16T15:23:18.926Z,24.68
2022-10-16T15:25:54.814Z,24.05
2022-10-16T15:28:28.298Z,23.51
2022-10-16T15:30:58.175Z,23.44
2022-10-16T15:33:37.277Z,23.51
2022-10-16T15:36:07.372Z,23.06
2022-10-16T15:38:36.810Z,22.84
2022-10-16T15:41:06.165Z,22.73
2022-10-16T15:43:35.220Z,22.59
2022-10-16T15:46:06.998Z,22.58
2022-10-16T15:48:34.380Z,22.54
2022-10-16T15:51:06.374Z,22.59
2022-10-16T15:53:38.224Z,22.46
2022-10-16T15:56:12.327Z,22.20
2022-10-16T15:58:39.368Z,21.85
2022-10-16T16:01:07.004Z,21.82
2022-10-16T16:03:34.143Z,21.66
2022-10-16T16:06:06.966Z,21.63
2022-10-16T16:08:34.963Z,21.86
2022-10-16T16:11:17.116Z,21.91
2022-10-16T16:13:44.326Z,21.85
2022-10-16T16:16:16.498Z,21.75
2022-10-16T16:18:43.993Z,21.63
2022-10-16T16:21:12.600Z,21.66
2022-10-16T16:23:41.869Z,21.19
2022-10-16T16:26:13.107Z,21.14
2022-10-16T16:28:44.230Z,21.10
2022-10-16T16:31:13.800Z,20.93
2022-10-16T16:33:40.628Z,20.86
2022-10-16T16:36:11.603Z,20.91
2022-10-16T16:38:41.500Z,20.78
2022-10-16T16:41:16.863Z,20.75
2022-10-16T16:43:44.034Z,20.78
2022-10-16T16:46:13.612Z,20.68
2022-10-16T16:48:41.339Z,20.55
2022-10-16T16:51:18.574Z,20.47
2022-10-16T16:53:50.804Z,20.55
2022-10-16T16:56:25.943Z,20.45
2022-10-16T16:58:56.081Z,20.45
2022-10-16T17:01:28.273Z,20.48
2022-10-16T17:04:02.243Z,20.26
2022-10-16T17:06:33.237Z,20.22
2022-10-16T17:09:03.840Z,19.96
2022-10-16T17:11:31.167Z,20.02
2022-10-16T17:14:00.182Z,19.94
2022-10-16T17:16:34.943Z,19.79
2022-10-16T17:19:05.583Z,19.93
2022-10-16T17:21:33.074Z,19.84
2022-10-16T17:24:03.248Z,19.71
2022-10-16T17:26:31.138Z,19.24
2022-10-16T17:29:01.365Z,19.51
2022-10-16T17:31:35.236Z,19.46
2022-10-16T17:34:09.154Z,19.40
2022-10-16T17:36:37.814Z,19.05
2022-10-16T17:39:08.073Z,19.00
2022-10-16T17:41:56.610Z,18.94
2022-10-16T17:44:26.926Z,18.96
2022-10-16T17:46:54.642Z,19.08
2022-10-16T17:49:26.091Z,18.99
2022-10-16T17:51:53.964Z,18.66
2022-10-16T17:54:21.281Z,18.48
2022-10-16T17:56:48.700Z,18.65
2022-10-16T17:59:17.729Z,18.56
2022-10-16T18:01:46.227Z,18.56
2022-10-16T18:04:19.066Z,18.41
2022-10-16T18:06:47.366Z,18.22
2022-10-16T18:09:18.969Z,18.16
2022-10-16T18:11:46.310Z,18.19
2022-10-16T18:14:16.589Z,18.16
2022-10-16T18:16:44.362Z,18.24
2022-10-16T18:19:14.325Z,18.19
2022-10-16T18:21:41.354Z,18.12
2022-10-16T18:24:09.813Z,17.95
2022-10-16T18:26:36.976Z,18.00
2022-10-16T18:29:04.945Z,18.03
2022-10-16T18:31:37.755Z,17.84
2022-10-16T18:34:08.005Z,17.86
2022-10-16T18:36:37.891Z,17.86
2022-10-16T18:39:09.501Z,17.72
2022-10-16T18:41:41.614Z,17.63
2022-10-16T18:44:11.724Z,17.56
2022-10-16T18:46:39.307Z,17.37
2022-10-16T18:49:06.826Z,17.05
2022-10-16T18:51:42.257Z,16.87
2022-10-16T18:54:12.096Z,16.87
2022-10-16T18:56:41.618Z,16.78
2022-10-16T18:59:10.291Z,16.94
2022-10-16T19:01:43.473Z,16.72
2022-10-16T19:04:18.108Z,16.63
2022-10-16T19:06:58.573Z,16.63
2022-10-16T19:09:25.700Z,16.68
2022-10-16T19:11:54.811Z,16.48
2022-10-16T19:14:26.259Z,16.43
2022-10-16T19:16:56.101Z,16.60
2022-10-16T19:19:25.947Z,16.63
2022-10-16T19:22:01.150Z,16.59
2022-10-16T19:24:35.103Z,16.66
2022-10-16T19:27:04.165Z,16.65
2022-10-16T19:29:31.032Z,16.41
2022-10-16T19:31:58.440Z,16.28
2022-10-16T19:34:28.427Z,16.42
2022-10-16T19:36:55.372Z,16.52
2022-10-16T19:39:23.695Z,16.32
2022-10-16T19:41:55.179Z,15.99
2022-10-16T19:44:25.510Z,15.99
2022-10-16T19:46:52.331Z,16.13
2022-10-16T19:49:22.066Z,16.11
2022-10-16T19:51:51.616Z,16.00
2022-10-16T19:54:18.824Z,16.12
2022-10-16T19:56:45.623Z,15.86
2022-10-16T19:59:16.182Z,15.69
2022-10-16T20:01:45.419Z,15.79
2022-10-16T20:04:20.013Z,15.97
2022-10-16T20:06:52.289Z,16.20
2022-10-16T20:09:19.163Z,16.16
2022-10-16T20:11:45.961Z,16.15
2022-10-16T20:14:17.903Z,16.05
2022-10-16T20:16:49.722Z,15.87
2022-10-16T20:19:16.601Z,15.87
2022-10-16T20:21:46.033Z,15.70
2022-10-16T20:24:12.909Z,15.52
2022-10-16T20:26:39.889Z,15.48
2022-10-16T20:29:07.174Z,15.72
2022-10-16T20:31:34.795Z,15.83
2022-10-16T20:34:08.893Z,15.77
2022-10-16T20:36:38.506Z,15.78
2022-10-16T20:39:09.292Z,15.44
2022-10-16T20:41:36.735Z,15.66
2022-10-16T20:44:03.977Z,15.60
2022-10-16T20:46:30.876Z,15.70
2022-10-16T20:49:10.588Z,15.62
2022-10-16T20:51:38.545Z,15.74
2022-10-16T20:54:09.207Z,15.78
2022-10-16T20:56:37.461Z,15.81
2022-10-16T20:59:07.073Z,15.69
2022-10-16T21:01:37.632Z,15.40
2022-10-16T21:04:11.131Z,15.49
2022-10-16T21:06:39.593Z,15.65
2022-10-16T21:09:11.639Z,15.68
2022-10-16T21:11:38.940Z,15.66
2022-10-16T21:14:08.015Z,15.49
2022-10-16T21:16:35.446Z,15.27
2022-10-16T21:19:02.336Z,15.12
2022-10-16T21:21:33.353Z,15.31
2022-10-16T21:24:00.878Z,15.30
2022-10-16T21:26:29.401Z,15.14
2022-10-16T21:28:59.832Z,15.34
2022-10-16T21:31:29.283Z,15.36
2022-10-16T21:33:56.591Z,15.33
2022-10-16T21:36:31.726Z,15.32
2022-10-16T21:39:14.118Z,15.33
2022-10-16T21:41:47.438Z,15.09
2022-10-16T21:44:15.564Z,15.15
2022-10-16T21:46:44.542Z,15.26
2022-10-16T21:49:18.334Z,15.40
2022-10-16T21:51:50.005Z,15.35
2022-10-16T21:54:22.776Z,15.47
2022-10-16T21:56:52.972Z,15.58
2022-10-16T21:59:22.367Z,15.42
2022-10-16T22:01:52.445Z,15.33
2022-10-16T22:04:19.353Z,15.40
2022-10-16T22:06:46.623Z,15.28
2022-10-16T22:09:15.076Z,15.19
2022-10-16T22:11:44.541Z,15.36
2022-10-16T22:14:17.767Z,15.66
2022-10-16T22:16:47.531Z,15.74
2022-10-16T22:19:17.785Z,15.76
2022-10-16T22:21:47.072Z,15.55
2022-10-16T22:24:18.571Z,15.65
2022-10-16T22:26:45.777Z,15.74
2022-10-16T22:29:14.260Z,15.81
2022-10-16T22:31:41.360Z,15.90
2022-10-16T22:34:13.855Z,15.92
2022-10-16T22:36:40.995Z,15.91
2022-10-16T22:39:07.892Z,15.79
2022-10-16T22:41:34.744Z,15.79
2022-10-16T22:44:04.515Z,15.79
2022-10-16T22:46:31.775Z,15.78
2022-10-16T22:48:58.699Z,15.70
2022-10-16T22:51:27.736Z,15.73
2022-10-16T22:53:58.178Z,15.64
2022-10-16T22:56:25.426Z,15.73
2022-10-16T22:58:52.320Z,15.63
2022-10-16T23:01:29.123Z,15.49
2022-10-16T23:04:01.160Z,15.68
2022-10-16T23:06:31.309Z,15.87
2022-10-16T23:09:04.879Z,15.94
2022-10-16T23:11:34.309Z,16.07
2022-10-16T23:14:04.197Z,15.92
2022-10-16T23:16:33.617Z,15.68
2022-10-16T23:19:00.745Z,15.95
2022-10-16T23:21:27.636Z,15.85
2022-10-16T23:23:59.096Z,15.93
2022-10-16T23:26:27.205Z,16.12
2022-10-16T23:28:57.532Z,16.08
2022-10-16T23:31:27.755Z,16.07
2022-10-16T23:33:56.860Z,16.07
2022-10-16T23:36:26.551Z,16.04
2022-10-16T23:38:58.198Z,16.17
2022-10-16T23:41:25.251Z,16.36
2022-10-16T23:43:52.600Z,16.51
2022-10-16T23:46:22.304Z,16.49
2022-10-16T23:48:49.265Z,16.65
2022-10-16T23:51:16.293Z,16.51
2022-10-16T23:53:43.569Z,16.55
2022-10-16T23:56:13.783Z,16.34
2022-10-16T23:58:40.838Z,16.33
